sensor_id;sensor_type;location;lat;lon;timestamp;temperature;humidity
9486;DHT22;4781;48.776;9.200;2022-10-26T00:01:22;12.80;99.90
9486;DHT22;4781;48.776;9.200;2022-10-26T00:03:50;12.80;99.90
9486;DHT22;4781;48.776;9.200;2022-10-26T00:06:22;12.80;99.90
9486;DHT22;4781;48.776;9.200;2022-10-26T00:08:52;12.80;99.90
9486;DHT22;4781;48.776;9.200;2022-10-26T00:11:22;12.90;99.90
9486;DHT22;4781;48.776;9.200;2022-10-26T00:13:50;12.90;99.90
9486;DHT22;4781;48.776;9.200;2022-10-26T00:16:22;12.90;99.90
9486;DHT22;4781;48.776;9.200;2022-10-26T00:18:52;12.90;99.90
9486;DHT22;4781;48.776;9.200;2022-10-26T00:21:20;12.90;99.90
9486;DHT22;4781;48.776;9.200;2022-10-26T00:23:49;12.90;99.90
9486;DHT22;4781;48.776;9.200;2022-10-26T00:26:17;12.90;99.90
9486;DHT22;4781;48.776;9.200;2022-10-26T00:28:45;13.00;99.90
9486;DHT22;4781;48.776;9.200;2022-10-26T00:31:15;12.90;99.90
9486;DHT22;4781;48.776;9.200;2022-10-26T00:33:43;12.90;99.90
9486;DHT22;4781;48.776;9.200;2022-10-26T00:36:12;13.00;99.90
9486;DHT22;4781;48.776;9.200;2022-10-26T00:38:42;12.90;99.90
9486;DHT22;4781;48.776;9.200;2022-10-26T00:41:17;12.90;99.90
9486;DHT22;4781;48.776;9.200;2022-10-26T00:43:46;12.90;99.90
9486;DHT22;4781;48.776;9.200;2022-10-26T00:46:23;12.90;99.90
9486;DHT22;4781;48.776;9.200;2022-10-26T00:48:50;12.90;99.90
9486;DHT22;4781;48.776;9.200;2022-10-26T00:51:23;12.90;99.90
9486;DHT22;4781;48.776;9.200;2022-10-26T00:53:54;12.80;99.90
9486;DHT22;4781;48.776;9.200;2022-10-26T00:56:23;12.90;99.90
9486;DHT22;4781;48.776;9.200;2022-10-26T00:58:52;12.90;99.90
9486;DHT22;4781;48.776;9.200;2022-10-26T01:01:20;12.90;99.90
9486;DHT22;4781;48.776;9.200;2022-10-26T01:03:49;12.80;99.90
9486;DHT22;4781;48.776;9.200;2022-10-26T01:06:17;12.80;99.90
9486;DHT22;4781;48.776;9.200;2022-10-26T01:08:46;12.80;99.90
9486;DHT22;4781;48.776;9.200;2022-10-26T01:11:15;12.70;99.90
9486;DHT22;4781;48.776;9.200;2022-10-26T01:13:44;12.70;99.90
9486;DHT22;4781;48.776;9.200;2022-10-26T01:22:35;12.70;99.90
9486;DHT22;4781;48.776;9.200;2022-10-26T01:28:17;12.70;99.90
9486;DHT22;4781;48.776;9.200;2022-10-26T01:31:00;12.70;99.90
9486;DHT22;4781;48.776;9.200;2022-10-26T01:39:09;12.70;99.90
9486;DHT22;4781;48.776;9.200;2022-10-26T01:41:51;12.70;99.90
9486;DHT22;4781;48.776;9.200;2022-10-26T01:44:42;12.60;99.90
9486;DHT22;4781;48.776;9.200;2022-10-26T01:47:15;12.60;99.90
9486;DHT22;4781;48.776;9.200;2022-10-26T01:49:56;12.60;99.90
9486;DHT22;4781;48.776;9.200;2022-10-26T01:52:25;12.60;99.90
9486;DHT22;4781;48.776;9.200;2022-10-26T01:55:06;12.60;99.90
9486;DHT22;4781;48.776;9.200;2022-10-26T01:57:54;12.60;99.90
9486;DHT22;4781;48.776;9.200;2022-10-26T02:00:24;12.60;99.90
9486;DHT22;4781;48.776;9.200;2022-10-26T02:03:14;12.60;99.90
9486;DHT22;4781;48.776;9.200;2022-10-26T02:14:09;12.50;99.90
9486;DHT22;4781;48.776;9.200;2022-10-26T02:17:03;12.50;99.90
9486;DHT22;4781;48.776;9.200;2022-10-26T02:20:02;12.50;99.90
9486;DHT22;4781;48.776;9.200;2022-10-26T02:22:40;12.40;99.90
9486;DHT22;4781;48.776;9.200;2022-10-26T02:25:31;12.40;99.90
9486;DHT22;4781;48.776;9.200;2022-10-26T02:28:05;12.30;99.90
9486;DHT22;4781;48.776;9.200;2022-10-26T02:30:35;12.30;99.90
9486;DHT22;4781;48.776;9.200;2022-10-26T02:33:07;12.50;99.90
9486;DHT22;4781;48.776;9.200;2022-10-26T02:35:37;12.60;99.90
9486;DHT22;4781;48.776;9.200;2022-10-26T02:38:09;12.60;99.90
9486;DHT22;4781;48.776;9.200;2022-10-26T02:40:39;12.50;99.90
9486;DHT22;4781;48.776;9.200;2022-10-26T02:43:11;12.50;99.90
9486;DHT22;4781;48.776;9.200;2022-10-26T02:45:43;12.60;99.90
9486;DHT22;4781;48.776;9.200;2022-10-26T02:48:16;12.50;99.90
9486;DHT22;4781;48.776;9.200;2022-10-26T02:50:50;12.50;99.90
9486;DHT22;4781;48.776;9.200;2022-10-26T02:53:30;12.50;99.90
9486;DHT22;4781;48.776;9.200;2022-10-26T02:56:20;12.40;99.90
9486;DHT22;4781;48.776;9.200;2022-10-26T02:58:52;12.40;99.90
9486;DHT22;4781;48.776;9.200;2022-10-26T03:01:22;12.40;99.90
9486;DHT22;4781;48.776;9.200;2022-10-26T03:03:51;12.40;99.90
9486;DHT22;4781;48.776;9.200;2022-10-26T03:06:23;12.40;99.90
9486;DHT22;4781;48.776;9.200;2022-10-26T03:08:51;12.40;99.90
9486;DHT22;4781;48.776;9.200;2022-10-26T03:11:20;12.30;99.90
9486;DHT22;4781;48.776;9.200;2022-10-26T03:13:48;12.30;99.90
9486;DHT22;4781;48.776;9.200;2022-10-26T03:16:16;12.30;99.90
9486;DHT22;4781;48.776;9.200;2022-10-26T03:18:45;12.30;99.90
9486;DHT22;4781;48.776;9.200;2022-10-26T03:21:13;12.30;99.90
9486;DHT22;4781;48.776;9.200;2022-10-26T03:23:41;12.40;99.90
9486;DHT22;4781;48.776;9.200;2022-10-26T03:26:11;12.40;99.90
9486;DHT22;4781;48.776;9.200;2022-10-26T03:28:40;12.40;99.90
9486;DHT22;4781;48.776;9.200;2022-10-26T03:31:08;12.40;99.90
9486;DHT22;4781;48.776;9.200;2022-10-26T03:33:36;12.40;99.90
9486;DHT22;4781;48.776;9.200;2022-10-26T03:36:05;12.40;99.90
9486;DHT22;4781;48.776;9.200;2022-10-26T03:38:34;12.40;99.90
9486;DHT22;4781;48.776;9.200;2022-10-26T03:41:02;12.40;99.90
9486;DHT22;4781;48.776;9.200;2022-10-26T03:43:31;12.40;99.90
9486;DHT22;4781;48.776;9.200;2022-10-26T03:45:59;12.50;99.90
9486;DHT22;4781;48.776;9.200;2022-10-26T03:48:28;12.70;99.90
9486;DHT22;4781;48.776;9.200;2022-10-26T03:50:59;12.50;99.90
9486;DHT22;4781;48.776;9.200;2022-10-26T03:53:27;12.50;99.90
9486;DHT22;4781;48.776;9.200;2022-10-26T03:55:56;12.50;99.90
9486;DHT22;4781;48.776;9.200;2022-10-26T03:58:24;12.60;99.90
9486;DHT22;4781;48.776;9.200;2022-10-26T04:00:52;12.60;99.90
9486;DHT22;4781;48.776;9.200;2022-10-26T04:03:21;12.60;99.90
9486;DHT22;4781;48.776;9.200;2022-10-26T04:05:49;12.60;99.90
9486;DHT22;4781;48.776;9.200;2022-10-26T04:08:17;12.60;99.90
9486;DHT22;4781;48.776;9.200;2022-10-26T04:10:46;12.50;99.90
9486;DHT22;4781;48.776;9.200;2022-10-26T04:13:14;12.50;99.90
9486;DHT22;4781;48.776;9.200;2022-10-26T04:18:32;12.50;99.90
9486;DHT22;4781;48.776;9.200;2022-10-26T04:21:01;12.50;99.90
9486;DHT22;4781;48.776;9.200;2022-10-26T04:23:29;12.50;99.90
9486;DHT22;4781;48.776;9.200;2022-10-26T04:25:57;12.50;99.90
9486;DHT22;4781;48.776;9.200;2022-10-26T04:28:26;12.50;99.90
9486;DHT22;4781;48.776;9.200;2022-10-26T04:30:54;12.60;99.90
9486;DHT22;4781;48.776;9.200;2022-10-26T04:33:23;12.60;99.90
9486;DHT22;4781;48.776;9.200;2022-10-26T04:35:51;12.60;99.90
9486;DHT22;4781;48.776;9.200;2022-10-26T04:38:19;12.50;99.90
9486;DHT22;4781;48.776;9.200;2022-10-26T04:40:49;12.60;99.90
9486;DHT22;4781;48.776;9.200;2022-10-26T04:43:18;12.70;99.90
9486;DHT22;4781;48.776;9.200;2022-10-26T04:45:46;12.90;99.90
9486;DHT22;4781;48.776;9.200;2022-10-26T04:48:14;13.10;99.90
9486;DHT22;4781;48.776;9.200;2022-10-26T04:50:43;13.10;99.90
9486;DHT22;4781;48.776;9.200;2022-10-26T04:53:11;13.10;99.90
9486;DHT22;4781;48.776;9.200;2022-10-26T04:55:40;13.20;99.90
9486;DHT22;4781;48.776;9.200;2022-10-26T04:58:08;13.20;99.90
9486;DHT22;4781;48.776;9.200;2022-10-26T05:00:36;13.10;99.90
9486;DHT22;4781;48.776;9.200;2022-10-26T05:03:06;13.10;99.90
9486;DHT22;4781;48.776;9.200;2022-10-26T05:05:35;13.10;99.90
9486;DHT22;4781;48.776;9.200;2022-10-26T05:08:04;13.20;99.90
9486;DHT22;4781;48.776;9.200;2022-10-26T05:10:33;13.20;99.90
9486;DHT22;4781;48.776;9.200;2022-10-26T05:13:01;13.30;99.90
9486;DHT22;4781;48.776;9.200;2022-10-26T05:15:29;13.70;99.90
9486;DHT22;4781;48.776;9.200;2022-10-26T05:18:00;13.80;99.90
9486;DHT22;4781;48.776;9.200;2022-10-26T05:20:32;13.80;99.90
9486;DHT22;4781;48.776;9.200;2022-10-26T05:23:06;13.80;99.90
9486;DHT22;4781;48.776;9.200;2022-10-26T05:25:36;13.80;99.90
9486;DHT22;4781;48.776;9.200;2022-10-26T05:28:06;13.60;99.90
9486;DHT22;4781;48.776;9.200;2022-10-26T05:30:39;13.50;99.90
9486;DHT22;4781;48.776;9.200;2022-10-26T05:33:10;13.40;99.90
9486;DHT22;4781;48.776;9.200;2022-10-26T05:35:39;13.40;99.90
9486;DHT22;4781;48.776;9.200;2022-10-26T05:38:13;13.40;99.90
9486;DHT22;4781;48.776;9.200;2022-10-26T05:40:50;13.50;99.90
9486;DHT22;4781;48.776;9.200;2022-10-26T05:43:21;13.50;99.90
9486;DHT22;4781;48.776;9.200;2022-10-26T05:45:50;13.50;99.90
9486;DHT22;4781;48.776;9.200;2022-10-26T05:48:19;13.40;99.90
9486;DHT22;4781;48.776;9.200;2022-10-26T05:50:48;13.30;99.90
9486;DHT22;4781;48.776;9.200;2022-10-26T05:53:18;13.30;99.90
9486;DHT22;4781;48.776;9.200;2022-10-26T05:55:46;13.30;99.90
9486;DHT22;4781;48.776;9.200;2022-10-26T05:58:16;13.30;99.90
9486;DHT22;4781;48.776;9.200;2022-10-26T06:01:08;13.20;99.90
9486;DHT22;4781;48.776;9.200;2022-10-26T06:06:42;13.20;99.90
9486;DHT22;4781;48.776;9.200;2022-10-26T06:09:17;13.20;99.90
9486;DHT22;4781;48.776;9.200;2022-10-26T06:11:42;13.10;99.90
9486;DHT22;4781;48.776;9.200;2022-10-26T06:14:10;13.20;99.90
9486;DHT22;4781;48.776;9.200;2022-10-26T06:20:02;13.10;99.90
9486;DHT22;4781;48.776;9.200;2022-10-26T06:22:54;13.10;99.90
9486;DHT22;4781;48.776;9.200;2022-10-26T06:25:50;13.20;99.90
9486;DHT22;4781;48.776;9.200;2022-10-26T06:31:32;13.70;99.90
9486;DHT22;4781;48.776;9.200;2022-10-26T06:34:00;13.80;99.90
9486;DHT22;4781;48.776;9.200;2022-10-26T06:36:30;14.00;99.90
9486;DHT22;4781;48.776;9.200;2022-10-26T06:39:04;14.20;99.90
9486;DHT22;4781;48.776;9.200;2022-10-26T06:41:35;14.20;99.90
9486;DHT22;4781;48.776;9.200;2022-10-26T06:44:05;14.30;99.90
9486;DHT22;4781;48.776;9.200;2022-10-26T06:49:39;14.30;99.90
9486;DHT22;4781;48.776;9.200;2022-10-26T06:52:26;14.30;99.90
9486;DHT22;4781;48.776;9.200;2022-10-26T06:55:12;14.30;99.90
9486;DHT22;4781;48.776;9.200;2022-10-26T06:57:40;14.30;99.90
9486;DHT22;4781;48.776;9.200;2022-10-26T07:00:20;14.30;99.90
9486;DHT22;4781;48.776;9.200;2022-10-26T07:02:50;14.40;99.90
9486;DHT22;4781;48.776;9.200;2022-10-26T07:05:19;14.50;99.90
9486;DHT22;4781;48.776;9.200;2022-10-26T07:07:47;14.60;99.90
9486;DHT22;4781;48.776;9.200;2022-10-26T07:10:16;14.60;99.90
9486;DHT22;4781;48.776;9.200;2022-10-26T07:12:44;14.70;99.90
9486;DHT22;4781;48.776;9.200;2022-10-26T07:15:13;14.70;99.90
9486;DHT22;4781;48.776;9.200;2022-10-26T07:17:46;14.80;99.90
9486;DHT22;4781;48.776;9.200;2022-10-26T07:20:17;14.80;99.90
9486;DHT22;4781;48.776;9.200;2022-10-26T07:22:56;14.80;99.90
9486;DHT22;4781;48.776;9.200;2022-10-26T07:25:26;14.80;99.90
9486;DHT22;4781;48.776;9.200;2022-10-26T07:27:58;15.00;99.90
9486;DHT22;4781;48.776;9.200;2022-10-26T07:30:28;15.00;99.90
9486;DHT22;4781;48.776;9.200;2022-10-26T07:33:07;15.00;99.90
9486;DHT22;4781;48.776;9.200;2022-10-26T07:35:33;15.10;99.90
9486;DHT22;4781;48.776;9.200;2022-10-26T07:38:02;15.10;99.90
9486;DHT22;4781;48.776;9.200;2022-10-26T07:40:31;15.10;99.90
9486;DHT22;4781;48.776;9.200;2022-10-26T07:43:00;15.20;99.90
9486;DHT22;4781;48.776;9.200;2022-10-26T07:45:29;15.20;99.90
9486;DHT22;4781;48.776;9.200;2022-10-26T07:47:57;15.20;99.90
9486;DHT22;4781;48.776;9.200;2022-10-26T07:50:27;15.30;99.90
9486;DHT22;4781;48.776;9.200;2022-10-26T07:52:56;15.30;99.90
9486;DHT22;4781;48.776;9.200;2022-10-26T07:55:25;15.30;99.90
9486;DHT22;4781;48.776;9.200;2022-10-26T07:57:55;15.30;99.90
9486;DHT22;4781;48.776;9.200;2022-10-26T08:00:23;15.40;99.90
9486;DHT22;4781;48.776;9.200;2022-10-26T08:02:52;15.40;99.90
9486;DHT22;4781;48.776;9.200;2022-10-26T08:05:21;15.40;99.90
9486;DHT22;4781;48.776;9.200;2022-10-26T08:07:49;15.40;99.90
9486;DHT22;4781;48.776;9.200;2022-10-26T08:10:17;15.40;99.90
9486;DHT22;4781;48.776;9.200;2022-10-26T08:12:46;15.40;99.90
9486;DHT22;4781;48.776;9.200;2022-10-26T08:15:14;15.50;99.90
9486;DHT22;4781;48.776;9.200;2022-10-26T08:17:43;15.50;99.90
9486;DHT22;4781;48.776;9.200;2022-10-26T08:20:11;15.50;99.90
9486;DHT22;4781;48.776;9.200;2022-10-26T08:22:40;15.50;99.90
9486;DHT22;4781;48.776;9.200;2022-10-26T08:25:08;15.60;99.90
9486;DHT22;4781;48.776;9.200;2022-10-26T08:27:36;15.60;99.90
9486;DHT22;4781;48.776;9.200;2022-10-26T08:30:05;15.60;99.90
9486;DHT22;4781;48.776;9.200;2022-10-26T08:32:34;15.60;99.90
9486;DHT22;4781;48.776;9.200;2022-10-26T08:35:02;15.70;99.90
9486;DHT22;4781;48.776;9.200;2022-10-26T08:37:31;15.70;99.90
9486;DHT22;4781;48.776;9.200;2022-10-26T08:39:59;15.70;99.90
9486;DHT22;4781;48.776;9.200;2022-10-26T08:42:36;15.70;99.90
9486;DHT22;4781;48.776;9.200;2022-10-26T08:45:31;15.80;99.90
9486;DHT22;4781;48.776;9.200;2022-10-26T08:47:59;15.80;99.90
9486;DHT22;4781;48.776;9.200;2022-10-26T08:50:43;15.80;99.90
9486;DHT22;4781;48.776;9.200;2022-10-26T08:53:24;15.80;99.90
9486;DHT22;4781;48.776;9.200;2022-10-26T08:56:03;15.80;99.90
9486;DHT22;4781;48.776;9.200;2022-10-26T08:58:36;15.80;99.90
9486;DHT22;4781;48.776;9.200;2022-10-26T09:01:06;15.80;99.90
9486;DHT22;4781;48.776;9.200;2022-10-26T09:03:35;15.90;99.90
9486;DHT22;4781;48.776;9.200;2022-10-26T09:11:59;16.10;99.90
9486;DHT22;4781;48.776;9.200;2022-10-26T09:14:44;16.20;99.90
9486;DHT22;4781;48.776;9.200;2022-10-26T09:20:48;16.40;99.90
9486;DHT22;4781;48.776;9.200;2022-10-26T09:23:47;16.70;99.90
9486;DHT22;4781;48.776;9.200;2022-10-26T09:26:34;16.80;99.90
9486;DHT22;4781;48.776;9.200;2022-10-26T09:29:13;16.90;99.90
9486;DHT22;4781;48.776;9.200;2022-10-26T09:31:46;17.00;99.90
9486;DHT22;4781;48.776;9.200;2022-10-26T09:34:27;17.30;99.90
9486;DHT22;4781;48.776;9.200;2022-10-26T09:36:54;17.60;99.90
9486;DHT22;4781;48.776;9.200;2022-10-26T09:39:37;17.90;99.90
9486;DHT22;4781;48.776;9.200;2022-10-26T09:42:25;18.40;99.90
9486;DHT22;4781;48.776;9.200;2022-10-26T09:45:00;18.60;99.90
9486;DHT22;4781;48.776;9.200;2022-10-26T09:47:37;18.80;99.90
9486;DHT22;4781;48.776;9.200;2022-10-26T09:50:14;19.40;99.90
9486;DHT22;4781;48.776;9.200;2022-10-26T09:53:01;19.80;99.90
9486;DHT22;4781;48.776;9.200;2022-10-26T09:55:37;19.70;99.90
9486;DHT22;4781;48.776;9.200;2022-10-26T09:58:11;19.20;99.90
9486;DHT22;4781;48.776;9.200;2022-10-26T10:00:42;19.20;99.90
9486;DHT22;4781;48.776;9.200;2022-10-26T10:03:29;19.30;99.90
9486;DHT22;4781;48.776;9.200;2022-10-26T10:06:20;19.40;99.90
9486;DHT22;4781;48.776;9.200;2022-10-26T10:11:50;19.30;99.90
9486;DHT22;4781;48.776;9.200;2022-10-26T10:14:36;19.30;99.90
9486;DHT22;4781;48.776;9.200;2022-10-26T10:17:06;19.10;99.90
9486;DHT22;4781;48.776;9.200;2022-10-26T10:19:38;19.10;99.90
9486;DHT22;4781;48.776;9.200;2022-10-26T10:22:22;19.00;99.90
9486;DHT22;4781;48.776;9.200;2022-10-26T10:24:57;19.00;99.90
9486;DHT22;4781;48.776;9.200;2022-10-26T10:27:28;19.10;99.90
9486;DHT22;4781;48.776;9.200;2022-10-26T10:30:12;18.90;99.90
9486;DHT22;4781;48.776;9.200;2022-10-26T10:32:43;19.20;99.90
9486;DHT22;4781;48.776;9.200;2022-10-26T10:35:28;19.70;99.90
9486;DHT22;4781;48.776;9.200;2022-10-26T10:37:56;20.00;99.90
9486;DHT22;4781;48.776;9.200;2022-10-26T10:40:27;20.10;99.90
9486;DHT22;4781;48.776;9.200;2022-10-26T10:43:12;20.40;99.90
9486;DHT22;4781;48.776;9.200;2022-10-26T10:46:00;20.10;99.90
9486;DHT22;4781;48.776;9.200;2022-10-26T10:48:28;19.70;99.90
9486;DHT22;4781;48.776;9.200;2022-10-26T10:51:02;19.50;99.90
9486;DHT22;4781;48.776;9.200;2022-10-26T10:53:50;19.60;99.90
9486;DHT22;4781;48.776;9.200;2022-10-26T10:56:41;19.50;99.90
9486;DHT22;4781;48.776;9.200;2022-10-26T10:59:42;19.70;99.90
9486;DHT22;4781;48.776;9.200;2022-10-26T11:02:42;19.60;99.90
9486;DHT22;4781;48.776;9.200;2022-10-26T11:11:33;20.60;99.90
9486;DHT22;4781;48.776;9.200;2022-10-26T11:14:19;21.00;99.90
9486;DHT22;4781;48.776;9.200;2022-10-26T11:20:14;21.10;99.90
9486;DHT22;4781;48.776;9.200;2022-10-26T11:22:59;21.00;99.90
9486;DHT22;4781;48.776;9.200;2022-10-26T11:25:39;20.80;99.90
9486;DHT22;4781;48.776;9.200;2022-10-26T11:28:30;20.30;99.90
9486;DHT22;4781;48.776;9.200;2022-10-26T11:31:03;20.30;99.90
9486;DHT22;4781;48.776;9.200;2022-10-26T11:33:44;20.30;99.90
9486;DHT22;4781;48.776;9.200;2022-10-26T11:36:11;20.20;99.90
9486;DHT22;4781;48.776;9.200;2022-10-26T11:39:04;20.30;99.90
9486;DHT22;4781;48.776;9.200;2022-10-26T11:45:00;20.60;99.90
9486;DHT22;4781;48.776;9.200;2022-10-26T11:47:43;20.70;99.90
9486;DHT22;4781;48.776;9.200;2022-10-26T11:50:24;20.80;99.90
9486;DHT22;4781;48.776;9.200;2022-10-26T11:53:00;20.90;99.90
9486;DHT22;4781;48.776;9.200;2022-10-26T11:55:25;20.90;99.90
9486;DHT22;4781;48.776;9.200;2022-10-26T11:57:55;20.90;99.90
9486;DHT22;4781;48.776;9.200;2022-10-26T12:00:25;21.00;99.90
9486;DHT22;4781;48.776;9.200;2022-10-26T12:03:02;21.00;99.90
9486;DHT22;4781;48.776;9.200;2022-10-26T12:08:16;21.30;99.90
9486;DHT22;4781;48.776;9.200;2022-10-26T12:10:48;21.40;99.90
9486;DHT22;4781;48.776;9.200;2022-10-26T12:19:50;21.10;99.90
9486;DHT22;4781;48.776;9.200;2022-10-26T12:22:35;20.90;99.90
9486;DHT22;4781;48.776;9.200;2022-10-26T12:32:52;20.60;99.90
9486;DHT22;4781;48.776;9.200;2022-10-26T12:35:42;20.60;99.90
9486;DHT22;4781;48.776;9.200;2022-10-26T12:43:42;20.50;99.90
9486;DHT22;4781;48.776;9.200;2022-10-26T12:49:14;20.40;99.90
9486;DHT22;4781;48.776;9.200;2022-10-26T12:51:40;20.40;99.90
9486;DHT22;4781;48.776;9.200;2022-10-26T12:57:27;20.40;99.90
9486;DHT22;4781;48.776;9.200;2022-10-26T13:00:03;20.50;99.90
9486;DHT22;4781;48.776;9.200;2022-10-26T13:02:47;20.40;99.90
9486;DHT22;4781;48.776;9.200;2022-10-26T13:08:09;20.40;99.90
9486;DHT22;4781;48.776;9.200;2022-10-26T13:10:43;20.40;99.90
9486;DHT22;4781;48.776;9.200;2022-10-26T13:13:20;20.50;99.90
9486;DHT22;4781;48.776;9.200;2022-10-26T13:15:57;20.60;99.90
9486;DHT22;4781;48.776;9.200;2022-10-26T13:18:26;20.60;99.90
9486;DHT22;4781;48.776;9.200;2022-10-26T13:21:07;20.70;99.90
9486;DHT22;4781;48.776;9.200;2022-10-26T13:23:43;20.60;99.90
9486;DHT22;4781;48.776;9.200;2022-10-26T13:26:14;20.60;99.90
9486;DHT22;4781;48.776;9.200;2022-10-26T13:28:54;20.70;99.90
9486;DHT22;4781;48.776;9.200;2022-10-26T13:39:46;20.80;99.90
9486;DHT22;4781;48.776;9.200;2022-10-26T13:42:24;20.80;99.90
9486;DHT22;4781;48.776;9.200;2022-10-26T13:45:00;20.80;99.90
9486;DHT22;4781;48.776;9.200;2022-10-26T13:50:27;20.70;99.90
9486;DHT22;4781;48.776;9.200;2022-10-26T13:53:06;20.60;99.90
9486;DHT22;4781;48.776;9.200;2022-10-26T13:58:37;20.60;99.90
9486;DHT22;4781;48.776;9.200;2022-10-26T14:03:40;20.60;99.90
9486;DHT22;4781;48.776;9.200;2022-10-26T14:06:21;20.50;99.90
9486;DHT22;4781;48.776;9.200;2022-10-26T14:08:51;20.50;99.90
9486;DHT22;4781;48.776;9.200;2022-10-26T14:11:29;20.80;99.90
9486;DHT22;4781;48.776;9.200;2022-10-26T14:14:04;20.40;99.90
9486;DHT22;4781;48.776;9.200;2022-10-26T14:16:33;20.50;99.90
9486;DHT22;4781;48.776;9.200;2022-10-26T14:19:02;20.50;99.90
9486;DHT22;4781;48.776;9.200;2022-10-26T14:21:30;20.40;99.90
9486;DHT22;4781;48.776;9.200;2022-10-26T14:23:59;20.30;99.90
9486;DHT22;4781;48.776;9.200;2022-10-26T14:26:38;20.30;99.90
9486;DHT22;4781;48.776;9.200;2022-10-26T14:29:16;20.30;99.90
9486;DHT22;4781;48.776;9.200;2022-10-26T14:31:46;20.40;99.90
9486;DHT22;4781;48.776;9.200;2022-10-26T14:34:18;20.50;99.90
9486;DHT22;4781;48.776;9.200;2022-10-26T14:36:58;20.70;99.90
9486;DHT22;4781;48.776;9.200;2022-10-26T14:39:40;20.80;99.90
9486;DHT22;4781;48.776;9.200;2022-10-26T14:42:38;20.80;99.90
9486;DHT22;4781;48.776;9.200;2022-10-26T14:45:02;21.00;99.90
9486;DHT22;4781;48.776;9.200;2022-10-26T14:47:32;21.00;99.90
9486;DHT22;4781;48.776;9.200;2022-10-26T14:50:03;21.00;99.90
9486;DHT22;4781;48.776;9.200;2022-10-26T14:52:35;21.00;99.90
9486;DHT22;4781;48.776;9.200;2022-10-26T14:55:12;21.00;99.90
9486;DHT22;4781;48.776;9.200;2022-10-26T14:57:44;21.00;99.90
9486;DHT22;4781;48.776;9.200;2022-10-26T15:00:16;21.00;99.90
9486;DHT22;4781;48.776;9.200;2022-10-26T15:02:54;21.00;99.90
9486;DHT22;4781;48.776;9.200;2022-10-26T15:05:30;20.90;99.90
9486;DHT22;4781;48.776;9.200;2022-10-26T15:08:00;20.90;99.90
9486;DHT22;4781;48.776;9.200;2022-10-26T15:13:30;20.70;99.90
9486;DHT22;4781;48.776;9.200;2022-10-26T15:16:14;20.70;99.90
9486;DHT22;4781;48.776;9.200;2022-10-26T15:18:51;20.60;99.90
9486;DHT22;4781;48.776;9.200;2022-10-26T15:21:42;20.50;99.90
9486;DHT22;4781;48.776;9.200;2022-10-26T15:26:53;20.20;99.90
9486;DHT22;4781;48.776;9.200;2022-10-26T15:29:39;20.00;99.90
9486;DHT22;4781;48.776;9.200;2022-10-26T15:32:29;19.90;99.90
9486;DHT22;4781;48.776;9.200;2022-10-26T15:35:13;19.80;99.90
9486;DHT22;4781;48.776;9.200;2022-10-26T15:37:47;19.60;99.90
9486;DHT22;4781;48.776;9.200;2022-10-26T15:40:17;19.50;99.90
9486;DHT22;4781;48.776;9.200;2022-10-26T15:42:49;19.40;99.90
9486;DHT22;4781;48.776;9.200;2022-10-26T15:45:23;19.30;99.90
9486;DHT22;4781;48.776;9.200;2022-10-26T15:47:58;19.20;99.90
9486;DHT22;4781;48.776;9.200;2022-10-26T15:50:29;19.20;99.90
9486;DHT22;4781;48.776;9.200;2022-10-26T15:53:04;19.00;99.90
9486;DHT22;4781;48.776;9.200;2022-10-26T15:55:32;18.90;99.90
9486;DHT22;4781;48.776;9.200;2022-10-26T15:58:01;18.80;99.90
9486;DHT22;4781;48.776;9.200;2022-10-26T16:00:29;18.70;99.90
9486;DHT22;4781;48.776;9.200;2022-10-26T16:02:58;18.60;99.90
9486;DHT22;4781;48.776;9.200;2022-10-26T16:05:26;18.40;99.90
9486;DHT22;4781;48.776;9.200;2022-10-26T16:07:55;18.40;99.90
9486;DHT22;4781;48.776;9.200;2022-10-26T16:10:24;18.40;99.90
9486;DHT22;4781;48.776;9.200;2022-10-26T16:12:52;18.30;99.90
9486;DHT22;4781;48.776;9.200;2022-10-26T16:15:24;18.20;99.90
9486;DHT22;4781;48.776;9.200;2022-10-26T16:17:52;18.10;99.90
9486;DHT22;4781;48.776;9.200;2022-10-26T16:20:23;18.00;99.90
9486;DHT22;4781;48.776;9.200;2022-10-26T16:22:53;18.00;99.90
9486;DHT22;4781;48.776;9.200;2022-10-26T16:25:24;18.00;99.90
9486;DHT22;4781;48.776;9.200;2022-10-26T16:27:53;18.00;99.90
9486;DHT22;4781;48.776;9.200;2022-10-26T16:30:22;17.80;99.90
9486;DHT22;4781;48.776;9.200;2022-10-26T16:32:50;17.80;99.90
9486;DHT22;4781;48.776;9.200;2022-10-26T16:35:19;17.70;99.90
9486;DHT22;4781;48.776;9.200;2022-10-26T16:37:47;17.60;99.90
9486;DHT22;4781;48.776;9.200;2022-10-26T16:40:16;17.50;99.90
9486;DHT22;4781;48.776;9.200;2022-10-26T16:42:44;17.30;99.90
9486;DHT22;4781;48.776;9.200;2022-10-26T16:45:14;17.40;99.90
9486;DHT22;4781;48.776;9.200;2022-10-26T16:47:42;17.30;99.90
9486;DHT22;4781;48.776;9.200;2022-10-26T16:50:11;17.20;99.90
9486;DHT22;4781;48.776;9.200;2022-10-26T16:52:40;17.20;99.90
9486;DHT22;4781;48.776;9.200;2022-10-26T16:55:09;17.10;99.90
9486;DHT22;4781;48.776;9.200;2022-10-26T16:57:37;17.00;99.90
9486;DHT22;4781;48.776;9.200;2022-10-26T17:00:06;17.00;99.90
9486;DHT22;4781;48.776;9.200;2022-10-26T17:02:35;17.00;99.90
9486;DHT22;4781;48.776;9.200;2022-10-26T17:05:03;16.90;99.90
9486;DHT22;4781;48.776;9.200;2022-10-26T17:07:32;16.80;99.90
9486;DHT22;4781;48.776;9.200;2022-10-26T17:10:00;16.80;99.90
9486;DHT22;4781;48.776;9.200;2022-10-26T17:12:29;16.80;99.90
9486;DHT22;4781;48.776;9.200;2022-10-26T17:14:57;16.70;99.90
9486;DHT22;4781;48.776;9.200;2022-10-26T17:17:27;16.60;99.90
9486;DHT22;4781;48.776;9.200;2022-10-26T17:19:55;16.60;99.90
9486;DHT22;4781;48.776;9.200;2022-10-26T17:22:24;16.60;99.90
9486;DHT22;4781;48.776;9.200;2022-10-26T17:24:52;16.50;99.90
9486;DHT22;4781;48.776;9.200;2022-10-26T17:27:21;16.50;99.90
9486;DHT22;4781;48.776;9.200;2022-10-26T17:29:49;16.50;99.90
9486;DHT22;4781;48.776;9.200;2022-10-26T17:32:18;16.40;99.90
9486;DHT22;4781;48.776;9.200;2022-10-26T17:34:47;16.40;99.90
9486;DHT22;4781;48.776;9.200;2022-10-26T17:37:16;16.30;99.90
9486;DHT22;4781;48.776;9.200;2022-10-26T17:39:44;16.30;99.90
9486;DHT22;4781;48.776;9.200;2022-10-26T17:42:12;16.30;99.90
9486;DHT22;4781;48.776;9.200;2022-10-26T17:44:41;16.30;99.90
9486;DHT22;4781;48.776;9.200;2022-10-26T17:47:09;16.20;99.90
9486;DHT22;4781;48.776;9.200;2022-10-26T17:49:38;16.20;99.90
9486;DHT22;4781;48.776;9.200;2022-10-26T17:52:06;16.20;99.90
9486;DHT22;4781;48.776;9.200;2022-10-26T17:54:35;16.10;99.90
9486;DHT22;4781;48.776;9.200;2022-10-26T17:57:03;16.00;99.90
9486;DHT22;4781;48.776;9.200;2022-10-26T17:59:31;16.00;99.90
9486;DHT22;4781;48.776;9.200;2022-10-26T18:02:00;16.00;99.90
9486;DHT22;4781;48.776;9.200;2022-10-26T18:04:28;16.00;99.90
9486;DHT22;4781;48.776;9.200;2022-10-26T18:07:00;16.00;99.90
9486;DHT22;4781;48.776;9.200;2022-10-26T18:09:26;16.00;99.90
9486;DHT22;4781;48.776;9.200;2022-10-26T18:11:55;16.00;99.90
9486;DHT22;4781;48.776;9.200;2022-10-26T18:14:23;16.00;99.90
9486;DHT22;4781;48.776;9.200;2022-10-26T18:16:52;15.90;99.90
9486;DHT22;4781;48.776;9.200;2022-10-26T18:19:20;15.80;99.90
9486;DHT22;4781;48.776;9.200;2022-10-26T18:21:49;15.80;99.90
9486;DHT22;4781;48.776;9.200;2022-10-26T18:24:17;15.80;99.90
9486;DHT22;4781;48.776;9.200;2022-10-26T18:26:46;15.80;99.90
9486;DHT22;4781;48.776;9.200;2022-10-26T18:29:14;15.90;99.90
9486;DHT22;4781;48.776;9.200;2022-10-26T18:31:43;15.90;99.90
9486;DHT22;4781;48.776;9.200;2022-10-26T18:34:12;15.90;99.90
9486;DHT22;4781;48.776;9.200;2022-10-26T18:36:40;15.90;99.90